createdAt,value
2022-08-21T00:02:55.507Z,7.55
2022-08-21T00:07:57.589Z,7.80
2022-08-21T00:13:01.507Z,8.75
2022-08-21T00:18:05.232Z,9.13
2022-08-21T00:23:08.486Z,10.93
2022-08-21T00:28:11.043Z,10.63
2022-08-21T00:33:13.206Z,7.53
2022-08-21T00:38:15.648Z,7.05
2022-08-21T00:43:22.395Z,12.30
2022-08-21T00:48:25.921Z,8.13
2022-08-21T00:53:28.996Z,8.85
2022-08-21T00:58:33.692Z,9.10
2022-08-21T01:03:36.942Z,8.05
2022-08-21T01:08:39.801Z,10.98
2022-08-21T01:13:50.173Z,8.25
2022-08-21T01:18:52.456Z,11.68
2022-08-21T01:23:55.455Z,8.38
2022-08-21T01:29:03.532Z,7.38
2022-08-21T01:34:06.724Z,9.75
2022-08-21T01:39:08.772Z,9.48
2022-08-21T01:44:10.835Z,9.48
2022-08-21T01:49:12.854Z,12.18
2022-08-21T01:54:14.921Z,8.82
2022-08-21T01:59:17.032Z,10.60
2022-08-21T02:04:19.084Z,16.52
2022-08-21T02:09:22.559Z,8.95
2022-08-21T02:14:32.090Z,8.90
2022-08-21T02:19:39.534Z,8.18
2022-08-21T02:24:54.433Z,9.07
2022-08-21T02:29:58.288Z,10.73
2022-08-21T02:35:00.338Z,9.38
2022-08-21T02:40:02.703Z,8.85
2022-08-21T02:45:05.060Z,11.60
2022-08-21T02:50:08.523Z,11.40
2022-08-21T02:55:10.547Z,8.88
2022-08-21T03:00:13.897Z,7.88
2022-08-21T03:05:16.602Z,8.70
2022-08-21T03:10:20.735Z,8.32
2022-08-21T03:15:24.693Z,13.27
2022-08-21T03:20:28.600Z,12.90
2022-08-21T03:25:40.425Z,9.02
2022-08-21T03:30:45.538Z,10.32
2022-08-21T03:35:54.359Z,10.70
2022-08-21T03:40:56.408Z,9.48
2022-08-21T03:46:01.006Z,10.77
2022-08-21T03:51:03.883Z,10.63
2022-08-21T03:56:06.534Z,10.88
2022-08-21T04:01:08.801Z,10.88
2022-08-21T04:06:11.122Z,10.88
2022-08-21T04:11:13.473Z,13.60
2022-08-21T04:16:15.576Z,17.23
2022-08-21T04:21:17.868Z,11.05
2022-08-21T04:26:22.855Z,9.18
2022-08-21T04:31:25.778Z,10.20
2022-08-21T04:36:27.819Z,14.60
2022-08-21T04:41:30.006Z,15.95
2022-08-21T04:46:32.017Z,10.05
2022-08-21T04:51:38.186Z,7.18
2022-08-21T04:56:46.962Z,10.25
2022-08-21T05:01:50.543Z,7.90
2022-08-21T05:06:55.497Z,10.43
2022-08-21T05:11:58.983Z,7.78
2022-08-21T05:17:01.047Z,13.02
2022-08-21T05:22:03.155Z,9.88
2022-08-21T05:27:05.969Z,11.18
2022-08-21T05:32:12.896Z,10.95
2022-08-21T05:37:15.020Z,12.05
2022-08-21T05:42:17.449Z,7.82
2022-08-21T05:47:19.462Z,11.23
2022-08-21T05:52:22.713Z,10.10
2022-08-21T05:57:26.363Z,7.05
2022-08-21T06:02:28.479Z,8.77
2022-08-21T06:07:30.573Z,12.85
2022-08-21T06:12:32.611Z,8.48
2022-08-21T06:17:34.644Z,9.88
2022-08-21T06:22:36.653Z,12.27
2022-08-21T06:27:38.908Z,9.00
2022-08-21T06:32:41.167Z,7.82
2022-08-21T06:37:43.158Z,9.63
2022-08-21T06:42:45.160Z,11.25
2022-08-21T06:47:49.761Z,9.18
2022-08-21T06:53:03.659Z,11.23
2022-08-21T06:58:06.528Z,14.30
2022-08-21T07:03:08.923Z,12.35
2022-08-21T07:08:10.936Z,10.48
2022-08-21T07:13:13.441Z,11.15
2022-08-21T07:18:16.294Z,14.63
2022-08-21T07:23:28.885Z,12.57
2022-08-21T07:28:31.194Z,13.05
2022-08-21T07:33:35.103Z,15.98
2022-08-21T07:38:37.536Z,16.10
2022-08-21T07:43:39.584Z,10.88
2022-08-21T07:48:48.772Z,14.75
2022-08-21T07:53:53.414Z,9.57
2022-08-21T07:58:56.712Z,10.63
2022-08-21T08:03:58.892Z,16.95
2022-08-21T08:09:04.348Z,14.38
2022-08-21T08:14:06.476Z,13.00
2022-08-21T08:19:08.479Z,16.83
2022-08-21T08:24:18.811Z,9.55
2022-08-21T08:34:25.535Z,14.70
2022-08-21T08:39:29.632Z,11.32
2022-08-21T08:44:32.120Z,10.57
2022-08-21T08:49:59.209Z,14.70
2022-08-21T08:55:13.706Z,11.70
2022-08-21T09:00:18.843Z,9.35
2022-08-21T09:05:31.508Z,7.43
2022-08-21T09:10:40.197Z,10.63
2022-08-21T09:16:15.052Z,19.95
2022-08-21T09:21:28.243Z,8.27
2022-08-21T09:26:48.675Z,11.02
2022-08-21T09:31:50.923Z,8.07
2022-08-21T09:36:53.172Z,5.88
2022-08-21T09:42:07.232Z,7.40
2022-08-21T09:47:10.987Z,6.00
2022-08-21T09:52:25.487Z,6.68
2022-08-21T09:57:42.651Z,6.28
2022-08-21T10:07:51.642Z,3.33
2022-08-21T10:13:14.889Z,5.60
2022-08-21T10:18:23.072Z,7.63
2022-08-21T10:23:33.247Z,5.65
2022-08-21T10:28:50.519Z,6.33
2022-08-21T10:34:11.100Z,5.25
2022-08-21T10:39:37.617Z,8.50
2022-08-21T10:44:57.261Z,3.95
2022-08-21T10:50:17.124Z,6.63
2022-08-21T10:55:26.225Z,5.95
2022-08-21T11:00:54.473Z,6.05
2022-08-21T11:06:04.048Z,6.88
2022-08-21T11:11:15.783Z,5.85
2022-08-21T11:16:38.237Z,5.80
2022-08-21T11:21:49.716Z,3.60
2022-08-21T11:27:07.382Z,4.95
2022-08-21T11:32:31.315Z,5.00
2022-08-21T11:37:47.445Z,5.10
2022-08-21T11:43:03.532Z,5.85
2022-08-21T11:48:27.129Z,5.68
2022-08-21T11:53:42.007Z,7.43
2022-08-21T11:58:48.880Z,6.25
2022-08-21T12:03:58.930Z,5.95
2022-08-21T12:09:06.027Z,3.00
2022-08-21T12:14:07.984Z,5.72
2022-08-21T12:19:13.518Z,7.15
2022-08-21T12:24:15.687Z,6.03
2022-08-21T12:29:30.170Z,6.15
2022-08-21T12:34:49.073Z,4.28
2022-08-21T12:39:53.836Z,6.88
2022-08-21T12:45:03.818Z,4.05
2022-08-21T12:50:12.156Z,5.73
2022-08-21T12:55:17.836Z,6.07
2022-08-21T13:00:24.659Z,6.45
2022-08-21T13:05:37.071Z,5.20
2022-08-21T13:10:41.268Z,6.20
2022-08-21T13:15:47.499Z,7.63
2022-08-21T13:20:51.028Z,6.93
2022-08-21T13:25:55.630Z,5.43
2022-08-21T13:30:57.685Z,9.10
2022-08-21T13:36:12.191Z,6.60
2022-08-21T13:41:17.517Z,5.00
2022-08-21T13:46:23.399Z,6.05
2022-08-21T13:51:25.548Z,3.10
2022-08-21T13:56:33.756Z,4.53
2022-08-21T14:01:54.292Z,4.97
2022-08-21T14:06:56.899Z,4.95
2022-08-21T14:12:02.133Z,4.32
2022-08-21T14:17:24.097Z,4.43
2022-08-21T14:22:34.140Z,4.07
2022-08-21T14:27:42.639Z,4.97
2022-08-21T14:32:46.388Z,5.15
2022-08-21T14:37:52.919Z,3.72
2022-08-21T14:42:55.248Z,3.60
2022-08-21T14:47:59.117Z,3.40
2022-08-21T14:53:01.307Z,3.83
2022-08-21T14:58:03.428Z,5.20
2022-08-21T15:03:07.820Z,5.15
2022-08-21T15:08:10.002Z,4.20
2022-08-21T15:13:12.057Z,6.97
2022-08-21T15:18:14.667Z,4.93
2022-08-21T15:23:17.225Z,4.50
2022-08-21T15:28:21.216Z,5.03
2022-08-21T15:33:23.521Z,5.00
2022-08-21T15:38:25.680Z,4.32
2022-08-21T15:43:30.797Z,7.35
2022-08-21T15:48:33.102Z,6.57
2022-08-21T15:53:40.163Z,3.67
2022-08-21T15:58:42.226Z,7.13
2022-08-21T16:03:49.377Z,4.50
2022-08-21T16:08:53.768Z,8.18
2022-08-21T16:13:57.002Z,4.43
2022-08-21T16:18:59.224Z,5.43
2022-08-21T16:24:01.561Z,6.65
2022-08-21T16:29:05.180Z,4.38
2022-08-21T16:34:08.009Z,3.92
2022-08-21T16:39:10.075Z,9.00
2022-08-21T16:44:12.232Z,5.82
2022-08-21T16:49:14.527Z,8.00
2022-08-21T16:54:16.692Z,6.80
2022-08-21T16:59:18.984Z,7.80
2022-08-21T17:04:21.148Z,5.65
2022-08-21T17:09:23.329Z,4.82
2022-08-21T17:14:25.367Z,6.00
2022-08-21T17:19:27.463Z,4.68
2022-08-21T17:24:29.696Z,5.57
2022-08-21T17:29:35.748Z,7.03
2022-08-21T17:34:39.446Z,3.88
2022-08-21T17:39:41.787Z,5.28
2022-08-21T17:44:46.072Z,6.35
2022-08-21T17:49:48.304Z,3.13
2022-08-21T17:54:50.349Z,6.15
2022-08-21T17:59:56.469Z,5.97
2022-08-21T18:05:00.308Z,6.03
2022-08-21T18:10:06.248Z,5.35
2022-08-21T18:15:11.073Z,10.10
2022-08-21T18:20:15.622Z,15.10
2022-08-21T18:25:19.161Z,15.40
2022-08-21T18:30:23.265Z,8.25
2022-08-21T18:35:26.056Z,6.65
2022-08-21T18:40:28.510Z,5.13
2022-08-21T18:45:30.595Z,6.28
2022-08-21T18:50:33.423Z,6.65
2022-08-21T18:55:37.659Z,5.50
2022-08-21T19:00:48.060Z,7.93
2022-08-21T19:05:53.992Z,10.38
2022-08-21T19:10:58.520Z,8.73
2022-08-21T19:16:03.632Z,6.97
2022-08-21T19:21:05.980Z,5.00
2022-08-21T19:26:10.684Z,7.00
2022-08-21T19:31:16.581Z,5.38
2022-08-21T19:36:22.017Z,5.70
2022-08-21T19:41:27.045Z,6.93
2022-08-21T19:46:35.360Z,9.93
2022-08-21T19:51:37.657Z,5.72
2022-08-21T19:56:40.418Z,4.93
2022-08-21T20:01:44.167Z,5.93
2022-08-21T20:06:47.260Z,8.60
2022-08-21T20:11:57.357Z,7.32
2022-08-21T20:17:07.999Z,7.68
2022-08-21T20:22:14.092Z,8.73
2022-08-21T20:27:22.552Z,8.65
2022-08-21T20:32:25.215Z,5.47
2022-08-21T20:42:54.392Z,10.18
2022-08-21T20:48:06.317Z,7.40
2022-08-21T20:53:14.853Z,7.50
2022-08-21T20:58:29.924Z,6.30
2022-08-21T21:03:45.226Z,7.05
2022-08-21T21:08:52.337Z,7.28
2022-08-21T21:14:01.697Z,6.70
2022-08-21T21:19:10.833Z,7.63
2022-08-21T21:24:21.510Z,5.93
2022-08-21T21:29:34.878Z,8.77
2022-08-21T21:34:42.803Z,7.25
2022-08-21T21:39:57.707Z,5.80
2022-08-21T21:45:25.141Z,6.40
2022-08-21T21:50:48.684Z,6.22
2022-08-21T21:56:00.005Z,7.47
2022-08-21T22:01:37.892Z,6.80
2022-08-21T22:07:05.002Z,6.80
2022-08-21T22:12:09.721Z,6.55
2022-08-21T22:17:44.677Z,5.75
2022-08-21T22:22:48.444Z,6.70
2022-08-21T22:28:00.166Z,5.22
2022-08-21T22:33:13.873Z,5.88
2022-08-21T22:38:27.243Z,6.53
2022-08-21T22:43:29.456Z,8.23
2022-08-21T22:48:38.828Z,6.85
2022-08-21T22:53:54.752Z,8.15
2022-08-21T22:59:06.263Z,9.90
2022-08-21T23:04:22.264Z,6.93
2022-08-21T23:09:27.028Z,4.50
2022-08-21T23:14:29.600Z,7.40
2022-08-21T23:19:48.592Z,5.60
2022-08-21T23:25:09.355Z,7.18
2022-08-21T23:30:37.395Z,8.53
2022-08-21T23:36:14.178Z,10.25
2022-08-21T23:41:55.128Z,6.90
2022-08-21T23:46:57.121Z,9.32
2022-08-21T23:52:19.662Z,7.03
2022-08-21T23:57:50.896Z,7.03
